sensor_id;sensor_type;location;lat;lon;timestamp;P1;durP1;ratioP1;P2;durP2;ratioP2
9914;SDS011;4996;48.746;9.174;2022-07-29T00:00:28;6.70;;;5.20;;
9914;SDS011;4996;48.746;9.174;2022-07-29T00:02:53;7.80;;;6.60;;
9914;SDS011;4996;48.746;9.174;2022-07-29T00:05:19;8.27;;;6.73;;
9914;SDS011;4996;48.746;9.174;2022-07-29T00:07:45;6.10;;;5.47;;
9914;SDS011;4996;48.746;9.174;2022-07-29T00:10:10;10.90;;;6.00;;
9914;SDS011;4996;48.746;9.174;2022-07-29T00:12:35;7.67;;;6.90;;
9914;SDS011;4996;48.746;9.174;2022-07-29T00:15:01;7.47;;;6.67;;
9914;SDS011;4996;48.746;9.174;2022-07-29T00:17:27;7.10;;;6.33;;
9914;SDS011;4996;48.746;9.174;2022-07-29T00:19:53;6.63;;;5.87;;
9914;SDS011;4996;48.746;9.174;2022-07-29T00:22:19;7.10;;;6.30;;
9914;SDS011;4996;48.746;9.174;2022-07-29T00:24:46;6.30;;;5.70;;
9914;SDS011;4996;48.746;9.174;2022-07-29T00:27:13;6.63;;;6.00;;
9914;SDS011;4996;48.746;9.174;2022-07-29T00:29:39;10.47;;;6.60;;
9914;SDS011;4996;48.746;9.174;2022-07-29T00:32:04;6.93;;;6.20;;
9914;SDS011;4996;48.746;9.174;2022-07-29T00:34:30;6.63;;;6.03;;
9914;SDS011;4996;48.746;9.174;2022-07-29T00:37:14;7.70;;;5.70;;
9914;SDS011;4996;48.746;9.174;2022-07-29T00:39:40;7.00;;;6.40;;
9914;SDS011;4996;48.746;9.174;2022-07-29T00:42:06;6.77;;;5.30;;
9914;SDS011;4996;48.746;9.174;2022-07-29T00:44:35;6.63;;;5.93;;
9914;SDS011;4996;48.746;9.174;2022-07-29T00:47:02;8.10;;;7.30;;
9914;SDS011;4996;48.746;9.174;2022-07-29T00:49:28;8.13;;;6.57;;
9914;SDS011;4996;48.746;9.174;2022-07-29T00:51:53;8.00;;;7.20;;
9914;SDS011;4996;48.746;9.174;2022-07-29T00:54:19;13.97;;;5.83;;
9914;SDS011;4996;48.746;9.174;2022-07-29T00:56:44;8.47;;;7.03;;
9914;SDS011;4996;48.746;9.174;2022-07-29T00:59:10;7.43;;;5.57;;
9914;SDS011;4996;48.746;9.174;2022-07-29T01:01:35;6.80;;;6.20;;
9914;SDS011;4996;48.746;9.174;2022-07-29T01:04:01;8.17;;;5.93;;
9914;SDS011;4996;48.746;9.174;2022-07-29T01:06:27;6.87;;;5.50;;
9914;SDS011;4996;48.746;9.174;2022-07-29T01:08:52;6.27;;;5.67;;
9914;SDS011;4996;48.746;9.174;2022-07-29T01:11:18;6.37;;;5.80;;
9914;SDS011;4996;48.746;9.174;2022-07-29T01:13:44;7.50;;;6.50;;
9914;SDS011;4996;48.746;9.174;2022-07-29T01:16:20;7.07;;;5.70;;
9914;SDS011;4996;48.746;9.174;2022-07-29T01:18:49;6.23;;;5.70;;
9914;SDS011;4996;48.746;9.174;2022-07-29T01:27:00;6.23;;;5.70;;
9914;SDS011;4996;48.746;9.174;2022-07-29T01:29:38;8.73;;;5.27;;
9914;SDS011;4996;48.746;9.174;2022-07-29T01:32:10;6.00;;;5.50;;
9914;SDS011;4996;48.746;9.174;2022-07-29T01:37:39;8.27;;;5.73;;
9914;SDS011;4996;48.746;9.174;2022-07-29T01:40:19;5.30;;;4.80;;
9914;SDS011;4996;48.746;9.174;2022-07-29T01:42:50;7.03;;;5.47;;
9914;SDS011;4996;48.746;9.174;2022-07-29T01:50:58;9.30;;;5.57;;
9914;SDS011;4996;48.746;9.174;2022-07-29T01:53:54;5.57;;;4.83;;
9914;SDS011;4996;48.746;9.174;2022-07-29T01:56:25;8.73;;;5.90;;
9914;SDS011;4996;48.746;9.174;2022-07-29T01:58:55;5.77;;;5.07;;
9914;SDS011;4996;48.746;9.174;2022-07-29T02:01:23;10.80;;;4.70;;
9914;SDS011;4996;48.746;9.174;2022-07-29T02:03:49;5.47;;;5.07;;
9914;SDS011;4996;48.746;9.174;2022-07-29T02:06:18;5.20;;;4.70;;
9914;SDS011;4996;48.746;9.174;2022-07-29T02:08:46;5.10;;;4.70;;
9914;SDS011;4996;48.746;9.174;2022-07-29T02:11:13;8.83;;;5.33;;
9914;SDS011;4996;48.746;9.174;2022-07-29T02:13:39;5.20;;;4.70;;
9914;SDS011;4996;48.746;9.174;2022-07-29T02:16:07;8.77;;;6.17;;
9914;SDS011;4996;48.746;9.174;2022-07-29T02:18:34;5.00;;;4.60;;
9914;SDS011;4996;48.746;9.174;2022-07-29T02:21:02;4.73;;;4.33;;
9914;SDS011;4996;48.746;9.174;2022-07-29T02:23:28;5.03;;;4.60;;
9914;SDS011;4996;48.746;9.174;2022-07-29T02:25:57;5.57;;;5.07;;
9914;SDS011;4996;48.746;9.174;2022-07-29T02:28:25;5.90;;;5.30;;
9914;SDS011;4996;48.746;9.174;2022-07-29T02:30:53;6.50;;;5.13;;
9914;SDS011;4996;48.746;9.174;2022-07-29T02:33:22;6.33;;;5.73;;
9914;SDS011;4996;48.746;9.174;2022-07-29T02:35:48;5.40;;;4.90;;
9914;SDS011;4996;48.746;9.174;2022-07-29T02:38:17;5.20;;;4.70;;
9914;SDS011;4996;48.746;9.174;2022-07-29T02:41:03;6.47;;;5.30;;
9914;SDS011;4996;48.746;9.174;2022-07-29T02:43:32;5.67;;;5.03;;
9914;SDS011;4996;48.746;9.174;2022-07-29T02:46:00;5.17;;;4.60;;
9914;SDS011;4996;48.746;9.174;2022-07-29T02:48:28;5.13;;;4.63;;
9914;SDS011;4996;48.746;9.174;2022-07-29T02:51:03;5.80;;;5.20;;
9914;SDS011;4996;48.746;9.174;2022-07-29T02:53:33;6.60;;;5.30;;
9914;SDS011;4996;48.746;9.174;2022-07-29T02:56:04;4.40;;;4.10;;
9914;SDS011;4996;48.746;9.174;2022-07-29T02:58:39;5.03;;;4.63;;
9914;SDS011;4996;48.746;9.174;2022-07-29T03:01:09;5.50;;;5.03;;
9914;SDS011;4996;48.746;9.174;2022-07-29T03:03:38;5.00;;;4.50;;
9914;SDS011;4996;48.746;9.174;2022-07-29T03:06:06;6.37;;;5.57;;
9914;SDS011;4996;48.746;9.174;2022-07-29T03:08:33;6.70;;;4.97;;
9914;SDS011;4996;48.746;9.174;2022-07-29T03:10:59;5.87;;;4.47;;
9914;SDS011;4996;48.746;9.174;2022-07-29T03:13:26;5.50;;;5.00;;
9914;SDS011;4996;48.746;9.174;2022-07-29T03:15:54;6.10;;;4.73;;
9914;SDS011;4996;48.746;9.174;2022-07-29T03:18:20;5.80;;;4.80;;
9914;SDS011;4996;48.746;9.174;2022-07-29T03:20:47;5.60;;;5.10;;
9914;SDS011;4996;48.746;9.174;2022-07-29T03:23:12;5.80;;;4.67;;
9914;SDS011;4996;48.746;9.174;2022-07-29T03:25:44;8.10;;;4.90;;
9914;SDS011;4996;48.746;9.174;2022-07-29T03:28:10;6.50;;;5.73;;
9914;SDS011;4996;48.746;9.174;2022-07-29T03:30:36;8.10;;;4.87;;
9914;SDS011;4996;48.746;9.174;2022-07-29T03:33:01;6.93;;;4.80;;
9914;SDS011;4996;48.746;9.174;2022-07-29T03:35:27;6.43;;;5.80;;
9914;SDS011;4996;48.746;9.174;2022-07-29T03:37:53;5.60;;;5.00;;
9914;SDS011;4996;48.746;9.174;2022-07-29T03:40:22;5.00;;;4.60;;
9914;SDS011;4996;48.746;9.174;2022-07-29T03:42:52;5.93;;;5.23;;
9914;SDS011;4996;48.746;9.174;2022-07-29T03:45:20;6.07;;;5.00;;
9914;SDS011;4996;48.746;9.174;2022-07-29T03:47:48;4.83;;;4.43;;
9914;SDS011;4996;48.746;9.174;2022-07-29T03:50:17;6.30;;;5.10;;
9914;SDS011;4996;48.746;9.174;2022-07-29T03:52:45;4.37;;;4.07;;
9914;SDS011;4996;48.746;9.174;2022-07-29T03:55:11;4.33;;;3.93;;
9914;SDS011;4996;48.746;9.174;2022-07-29T03:57:37;5.20;;;4.70;;
9914;SDS011;4996;48.746;9.174;2022-07-29T04:00:04;6.03;;;5.53;;
9914;SDS011;4996;48.746;9.174;2022-07-29T04:02:31;6.00;;;5.40;;
9914;SDS011;4996;48.746;9.174;2022-07-29T04:04:57;5.53;;;5.03;;
9914;SDS011;4996;48.746;9.174;2022-07-29T04:07:23;5.27;;;4.77;;
9914;SDS011;4996;48.746;9.174;2022-07-29T04:09:48;5.53;;;5.03;;
9914;SDS011;4996;48.746;9.174;2022-07-29T04:12:14;5.67;;;4.87;;
9914;SDS011;4996;48.746;9.174;2022-07-29T04:14:39;5.50;;;4.80;;
9914;SDS011;4996;48.746;9.174;2022-07-29T04:17:05;6.20;;;4.53;;
9914;SDS011;4996;48.746;9.174;2022-07-29T04:19:30;4.37;;;4.07;;
9914;SDS011;4996;48.746;9.174;2022-07-29T04:21:57;4.80;;;4.00;;
9914;SDS011;4996;48.746;9.174;2022-07-29T04:24:24;5.00;;;4.10;;
9914;SDS011;4996;48.746;9.174;2022-07-29T04:26:49;6.10;;;4.80;;
9914;SDS011;4996;48.746;9.174;2022-07-29T04:29:15;5.03;;;4.53;;
9914;SDS011;4996;48.746;9.174;2022-07-29T04:31:41;9.30;;;4.53;;
9914;SDS011;4996;48.746;9.174;2022-07-29T04:34:07;5.30;;;4.60;;
9914;SDS011;4996;48.746;9.174;2022-07-29T04:36:33;5.13;;;4.23;;
9914;SDS011;4996;48.746;9.174;2022-07-29T04:38:59;5.20;;;4.70;;
9914;SDS011;4996;48.746;9.174;2022-07-29T04:41:26;5.57;;;5.07;;
9914;SDS011;4996;48.746;9.174;2022-07-29T04:43:52;4.90;;;4.50;;
9914;SDS011;4996;48.746;9.174;2022-07-29T04:46:18;5.57;;;4.43;;
9914;SDS011;4996;48.746;9.174;2022-07-29T04:48:45;5.23;;;4.70;;
9914;SDS011;4996;48.746;9.174;2022-07-29T04:51:11;7.50;;;4.43;;
9914;SDS011;4996;48.746;9.174;2022-07-29T04:53:36;5.03;;;4.53;;
9914;SDS011;4996;48.746;9.174;2022-07-29T04:56:02;6.10;;;5.30;;
9914;SDS011;4996;48.746;9.174;2022-07-29T04:58:28;7.40;;;4.67;;
9914;SDS011;4996;48.746;9.174;2022-07-29T05:00:53;4.53;;;4.10;;
9914;SDS011;4996;48.746;9.174;2022-07-29T05:03:19;4.90;;;4.37;;
9914;SDS011;4996;48.746;9.174;2022-07-29T05:05:44;9.57;;;5.70;;
9914;SDS011;4996;48.746;9.174;2022-07-29T05:08:10;5.60;;;3.53;;
9914;SDS011;4996;48.746;9.174;2022-07-29T05:10:35;5.47;;;4.00;;
9914;SDS011;4996;48.746;9.174;2022-07-29T05:13:06;6.60;;;3.33;;
9914;SDS011;4996;48.746;9.174;2022-07-29T05:15:33;5.53;;;3.50;;
9914;SDS011;4996;48.746;9.174;2022-07-29T05:17:59;3.53;;;3.20;;
9914;SDS011;4996;48.746;9.174;2022-07-29T05:20:25;5.93;;;5.17;;
9914;SDS011;4996;48.746;9.174;2022-07-29T05:22:53;4.40;;;3.47;;
9914;SDS011;4996;48.746;9.174;2022-07-29T05:25:22;4.30;;;3.50;;
9914;SDS011;4996;48.746;9.174;2022-07-29T05:27:48;3.60;;;3.30;;
9914;SDS011;4996;48.746;9.174;2022-07-29T05:30:13;3.87;;;2.80;;
9914;SDS011;4996;48.746;9.174;2022-07-29T05:32:39;4.20;;;2.60;;
9914;SDS011;4996;48.746;9.174;2022-07-29T05:35:05;2.90;;;2.70;;
9914;SDS011;4996;48.746;9.174;2022-07-29T05:37:30;6.87;;;2.77;;
9914;SDS011;4996;48.746;9.174;2022-07-29T05:39:56;3.30;;;2.83;;
9914;SDS011;4996;48.746;9.174;2022-07-29T05:42:22;4.20;;;2.40;;
9914;SDS011;4996;48.746;9.174;2022-07-29T05:44:47;3.60;;;3.07;;
9914;SDS011;4996;48.746;9.174;2022-07-29T05:47:13;5.00;;;2.70;;
9914;SDS011;4996;48.746;9.174;2022-07-29T05:49:38;2.90;;;2.60;;
9914;SDS011;4996;48.746;9.174;2022-07-29T05:52:04;3.13;;;2.83;;
9914;SDS011;4996;48.746;9.174;2022-07-29T05:54:29;3.47;;;3.17;;
9914;SDS011;4996;48.746;9.174;2022-07-29T05:56:55;6.23;;;2.50;;
9914;SDS011;4996;48.746;9.174;2022-07-29T05:59:21;2.97;;;2.40;;
9914;SDS011;4996;48.746;9.174;2022-07-29T06:01:46;3.33;;;3.03;;
9914;SDS011;4996;48.746;9.174;2022-07-29T06:04:12;3.60;;;3.10;;
9914;SDS011;4996;48.746;9.174;2022-07-29T06:06:37;5.90;;;3.10;;
9914;SDS011;4996;48.746;9.174;2022-07-29T06:09:03;3.20;;;2.90;;
9914;SDS011;4996;48.746;9.174;2022-07-29T06:11:28;3.13;;;2.83;;
9914;SDS011;4996;48.746;9.174;2022-07-29T06:13:54;2.70;;;2.50;;
9914;SDS011;4996;48.746;9.174;2022-07-29T06:16:19;3.37;;;3.03;;
9914;SDS011;4996;48.746;9.174;2022-07-29T06:18:45;4.07;;;3.70;;
9914;SDS011;4996;48.746;9.174;2022-07-29T06:21:11;4.20;;;3.67;;
9914;SDS011;4996;48.746;9.174;2022-07-29T06:23:37;5.13;;;3.87;;
9914;SDS011;4996;48.746;9.174;2022-07-29T06:26:03;4.60;;;3.43;;
9914;SDS011;4996;48.746;9.174;2022-07-29T06:28:29;9.50;;;2.77;;
9914;SDS011;4996;48.746;9.174;2022-07-29T06:30:55;4.70;;;3.20;;
9914;SDS011;4996;48.746;9.174;2022-07-29T06:33:20;3.20;;;2.73;;
9914;SDS011;4996;48.746;9.174;2022-07-29T06:35:46;5.50;;;2.97;;
9914;SDS011;4996;48.746;9.174;2022-07-29T06:38:12;3.20;;;2.90;;
9914;SDS011;4996;48.746;9.174;2022-07-29T06:40:44;7.47;;;3.67;;
9914;SDS011;4996;48.746;9.174;2022-07-29T06:43:32;5.27;;;2.93;;
9914;SDS011;4996;48.746;9.174;2022-07-29T06:46:03;3.30;;;3.00;;
9914;SDS011;4996;48.746;9.174;2022-07-29T06:48:30;4.47;;;3.23;;
9914;SDS011;4996;48.746;9.174;2022-07-29T06:50:56;3.50;;;3.20;;
9914;SDS011;4996;48.746;9.174;2022-07-29T06:53:21;4.90;;;3.87;;
9914;SDS011;4996;48.746;9.174;2022-07-29T06:55:47;4.97;;;3.87;;
9914;SDS011;4996;48.746;9.174;2022-07-29T06:58:13;3.70;;;3.10;;
9914;SDS011;4996;48.746;9.174;2022-07-29T07:00:41;3.30;;;3.00;;
9914;SDS011;4996;48.746;9.174;2022-07-29T07:03:07;4.43;;;3.70;;
9914;SDS011;4996;48.746;9.174;2022-07-29T07:05:32;6.53;;;3.70;;
9914;SDS011;4996;48.746;9.174;2022-07-29T07:07:58;4.30;;;3.43;;
9914;SDS011;4996;48.746;9.174;2022-07-29T07:10:23;4.83;;;4.43;;
9914;SDS011;4996;48.746;9.174;2022-07-29T07:12:49;4.20;;;3.80;;
9914;SDS011;4996;48.746;9.174;2022-07-29T07:15:14;5.30;;;3.63;;
9914;SDS011;4996;48.746;9.174;2022-07-29T07:17:40;5.10;;;3.70;;
9914;SDS011;4996;48.746;9.174;2022-07-29T07:20:06;8.10;;;3.67;;
9914;SDS011;4996;48.746;9.174;2022-07-29T07:22:32;5.10;;;4.30;;
9914;SDS011;4996;48.746;9.174;2022-07-29T07:24:57;4.13;;;3.30;;
9914;SDS011;4996;48.746;9.174;2022-07-29T07:27:23;4.73;;;4.00;;
9914;SDS011;4996;48.746;9.174;2022-07-29T07:29:48;5.40;;;3.40;;
9914;SDS011;4996;48.746;9.174;2022-07-29T07:32:14;6.07;;;3.47;;
9914;SDS011;4996;48.746;9.174;2022-07-29T07:34:41;5.60;;;3.90;;
9914;SDS011;4996;48.746;9.174;2022-07-29T07:37:08;4.63;;;3.90;;
9914;SDS011;4996;48.746;9.174;2022-07-29T07:39:33;4.77;;;4.27;;
9914;SDS011;4996;48.746;9.174;2022-07-29T07:41:59;5.30;;;3.73;;
9914;SDS011;4996;48.746;9.174;2022-07-29T07:44:25;7.90;;;3.97;;
9914;SDS011;4996;48.746;9.174;2022-07-29T07:46:50;5.40;;;3.53;;
9914;SDS011;4996;48.746;9.174;2022-07-29T07:49:16;5.30;;;3.93;;
9914;SDS011;4996;48.746;9.174;2022-07-29T07:51:41;4.43;;;3.50;;
9914;SDS011;4996;48.746;9.174;2022-07-29T07:54:07;4.27;;;3.87;;
9914;SDS011;4996;48.746;9.174;2022-07-29T07:56:32;4.10;;;3.80;;
9914;SDS011;4996;48.746;9.174;2022-07-29T07:58:58;3.97;;;3.63;;
9914;SDS011;4996;48.746;9.174;2022-07-29T08:01:23;6.07;;;4.20;;
9914;SDS011;4996;48.746;9.174;2022-07-29T08:03:49;4.47;;;3.93;;
9914;SDS011;4996;48.746;9.174;2022-07-29T08:06:15;5.33;;;3.87;;
9914;SDS011;4996;48.746;9.174;2022-07-29T08:08:40;3.93;;;3.53;;
9914;SDS011;4996;48.746;9.174;2022-07-29T08:11:06;7.83;;;3.80;;
9914;SDS011;4996;48.746;9.174;2022-07-29T08:13:32;4.70;;;4.30;;
9914;SDS011;4996;48.746;9.174;2022-07-29T08:15:58;5.23;;;4.17;;
9914;SDS011;4996;48.746;9.174;2022-07-29T08:18:28;4.40;;;4.00;;
9914;SDS011;4996;48.746;9.174;2022-07-29T08:20:54;4.30;;;3.90;;
9914;SDS011;4996;48.746;9.174;2022-07-29T08:23:20;4.03;;;3.67;;
9914;SDS011;4996;48.746;9.174;2022-07-29T08:25:47;7.07;;;4.67;;
9914;SDS011;4996;48.746;9.174;2022-07-29T08:28:13;4.90;;;4.40;;
9914;SDS011;4996;48.746;9.174;2022-07-29T08:30:39;4.07;;;3.77;;
9914;SDS011;4996;48.746;9.174;2022-07-29T08:33:05;6.33;;;4.43;;
9914;SDS011;4996;48.746;9.174;2022-07-29T08:35:30;5.63;;;4.00;;
9914;SDS011;4996;48.746;9.174;2022-07-29T08:37:56;8.53;;;5.07;;
9914;SDS011;4996;48.746;9.174;2022-07-29T08:40:22;3.83;;;3.40;;
9914;SDS011;4996;48.746;9.174;2022-07-29T08:42:49;4.27;;;3.87;;
9914;SDS011;4996;48.746;9.174;2022-07-29T08:45:15;4.20;;;3.90;;
9914;SDS011;4996;48.746;9.174;2022-07-29T08:47:40;3.90;;;3.20;;
9914;SDS011;4996;48.746;9.174;2022-07-29T08:50:07;3.80;;;3.40;;
9914;SDS011;4996;48.746;9.174;2022-07-29T08:52:35;4.20;;;3.90;;
9914;SDS011;4996;48.746;9.174;2022-07-29T08:55:02;5.17;;;4.60;;
9914;SDS011;4996;48.746;9.174;2022-07-29T08:57:29;4.20;;;3.80;;
9914;SDS011;4996;48.746;9.174;2022-07-29T08:59:55;3.73;;;3.40;;
9914;SDS011;4996;48.746;9.174;2022-07-29T09:02:24;7.27;;;4.50;;
9914;SDS011;4996;48.746;9.174;2022-07-29T09:04:53;4.83;;;3.73;;
9914;SDS011;4996;48.746;9.174;2022-07-29T09:07:20;6.63;;;4.83;;
9914;SDS011;4996;48.746;9.174;2022-07-29T09:09:46;4.97;;;4.37;;
9914;SDS011;4996;48.746;9.174;2022-07-29T09:12:12;6.50;;;3.83;;
9914;SDS011;4996;48.746;9.174;2022-07-29T09:14:38;5.43;;;3.77;;
9914;SDS011;4996;48.746;9.174;2022-07-29T09:17:04;4.10;;;3.50;;
9914;SDS011;4996;48.746;9.174;2022-07-29T09:19:30;6.50;;;4.10;;
9914;SDS011;4996;48.746;9.174;2022-07-29T09:21:59;5.57;;;3.90;;
9914;SDS011;4996;48.746;9.174;2022-07-29T09:27:04;4.43;;;3.77;;
9914;SDS011;4996;48.746;9.174;2022-07-29T09:29:34;5.17;;;4.30;;
9914;SDS011;4996;48.746;9.174;2022-07-29T09:31:59;6.00;;;4.13;;
9914;SDS011;4996;48.746;9.174;2022-07-29T09:34:26;4.30;;;3.90;;
9914;SDS011;4996;48.746;9.174;2022-07-29T09:36:55;4.13;;;3.40;;
9914;SDS011;4996;48.746;9.174;2022-07-29T09:39:28;4.10;;;3.43;;
9914;SDS011;4996;48.746;9.174;2022-07-29T09:41:55;5.53;;;4.30;;
9914;SDS011;4996;48.746;9.174;2022-07-29T09:44:22;4.83;;;4.17;;
9914;SDS011;4996;48.746;9.174;2022-07-29T09:46:56;5.97;;;3.60;;
9914;SDS011;4996;48.746;9.174;2022-07-29T09:49:35;4.80;;;3.80;;
9914;SDS011;4996;48.746;9.174;2022-07-29T09:52:14;5.50;;;4.27;;
9914;SDS011;4996;48.746;9.174;2022-07-29T09:54:40;4.60;;;4.10;;
9914;SDS011;4996;48.746;9.174;2022-07-29T09:57:07;4.03;;;3.63;;
9914;SDS011;4996;48.746;9.174;2022-07-29T09:59:37;5.03;;;4.10;;
9914;SDS011;4996;48.746;9.174;2022-07-29T10:02:13;5.17;;;4.00;;
9914;SDS011;4996;48.746;9.174;2022-07-29T10:04:42;4.53;;;4.10;;
9914;SDS011;4996;48.746;9.174;2022-07-29T10:07:07;4.50;;;4.07;;
9914;SDS011;4996;48.746;9.174;2022-07-29T10:09:34;4.07;;;3.70;;
9914;SDS011;4996;48.746;9.174;2022-07-29T10:14:30;5.40;;;4.27;;
9914;SDS011;4996;48.746;9.174;2022-07-29T10:17:00;5.73;;;4.00;;
9914;SDS011;4996;48.746;9.174;2022-07-29T10:19:31;5.13;;;4.03;;
9914;SDS011;4996;48.746;9.174;2022-07-29T10:21:58;5.77;;;4.30;;
9914;SDS011;4996;48.746;9.174;2022-07-29T10:24:26;5.50;;;4.80;;
9914;SDS011;4996;48.746;9.174;2022-07-29T10:26:53;4.50;;;3.93;;
9914;SDS011;4996;48.746;9.174;2022-07-29T10:29:23;5.03;;;4.10;;
9914;SDS011;4996;48.746;9.174;2022-07-29T10:43:47;7.23;;;4.70;;
9914;SDS011;4996;48.746;9.174;2022-07-29T10:46:13;5.00;;;4.60;;
9914;SDS011;4996;48.746;9.174;2022-07-29T10:54:37;11.90;;;6.30;;
9914;SDS011;4996;48.746;9.174;2022-07-29T10:57:23;10.90;;;7.73;;
9914;SDS011;4996;48.746;9.174;2022-07-29T11:07:35;10.87;;;6.50;;
9914;SDS011;4996;48.746;9.174;2022-07-29T11:15:08;14.93;;;8.07;;
9914;SDS011;4996;48.746;9.174;2022-07-29T11:20:31;12.00;;;9.97;;
9914;SDS011;4996;48.746;9.174;2022-07-29T11:23:18;15.80;;;9.90;;
9914;SDS011;4996;48.746;9.174;2022-07-29T11:26:12;12.23;;;9.77;;
9914;SDS011;4996;48.746;9.174;2022-07-29T11:29:01;13.87;;;8.67;;
9914;SDS011;4996;48.746;9.174;2022-07-29T11:31:40;7.40;;;6.70;;
9914;SDS011;4996;48.746;9.174;2022-07-29T11:34:26;8.53;;;7.10;;
9914;SDS011;4996;48.746;9.174;2022-07-29T11:39:37;9.13;;;8.17;;
9914;SDS011;4996;48.746;9.174;2022-07-29T11:45:02;13.37;;;9.13;;
9914;SDS011;4996;48.746;9.174;2022-07-29T11:47:35;7.60;;;6.80;;
9914;SDS011;4996;48.746;9.174;2022-07-29T11:50:04;7.80;;;6.50;;
9914;SDS011;4996;48.746;9.174;2022-07-29T11:55:11;10.50;;;6.43;;
9914;SDS011;4996;48.746;9.174;2022-07-29T11:57:45;11.10;;;6.00;;
9914;SDS011;4996;48.746;9.174;2022-07-29T12:02:48;6.50;;;5.90;;
9914;SDS011;4996;48.746;9.174;2022-07-29T12:05:15;9.20;;;6.23;;
9914;SDS011;4996;48.746;9.174;2022-07-29T12:07:41;8.80;;;6.67;;
9914;SDS011;4996;48.746;9.174;2022-07-29T12:10:07;7.30;;;6.00;;
9914;SDS011;4996;48.746;9.174;2022-07-29T12:12:33;9.20;;;5.50;;
9914;SDS011;4996;48.746;9.174;2022-07-29T12:15:13;7.60;;;5.73;;
9914;SDS011;4996;48.746;9.174;2022-07-29T12:17:42;6.70;;;5.80;;
9914;SDS011;4996;48.746;9.174;2022-07-29T12:20:08;6.93;;;6.20;;
9914;SDS011;4996;48.746;9.174;2022-07-29T12:22:34;5.93;;;5.43;;
9914;SDS011;4996;48.746;9.174;2022-07-29T12:25:03;5.80;;;5.30;;
9914;SDS011;4996;48.746;9.174;2022-07-29T12:27:31;5.63;;;5.13;;
9914;SDS011;4996;48.746;9.174;2022-07-29T12:29:58;4.57;;;4.17;;
9914;SDS011;4996;48.746;9.174;2022-07-29T12:32:32;5.87;;;5.30;;
9914;SDS011;4996;48.746;9.174;2022-07-29T12:34:59;4.73;;;3.97;;
9914;SDS011;4996;48.746;9.174;2022-07-29T12:37:29;4.70;;;4.30;;
9914;SDS011;4996;48.746;9.174;2022-07-29T12:39:56;5.07;;;4.67;;
9914;SDS011;4996;48.746;9.174;2022-07-29T12:42:22;5.00;;;4.37;;
9914;SDS011;4996;48.746;9.174;2022-07-29T12:44:48;6.13;;;4.77;;
9914;SDS011;4996;48.746;9.174;2022-07-29T12:47:15;6.20;;;5.70;;
9914;SDS011;4996;48.746;9.174;2022-07-29T12:49:41;5.43;;;4.93;;
9914;SDS011;4996;48.746;9.174;2022-07-29T12:54:52;5.73;;;5.13;;
9914;SDS011;4996;48.746;9.174;2022-07-29T12:57:18;6.03;;;5.23;;
9914;SDS011;4996;48.746;9.174;2022-07-29T12:59:44;5.57;;;5.07;;
9914;SDS011;4996;48.746;9.174;2022-07-29T13:02:22;8.13;;;5.20;;
9914;SDS011;4996;48.746;9.174;2022-07-29T13:04:57;5.30;;;4.80;;
9914;SDS011;4996;48.746;9.174;2022-07-29T13:07:25;5.77;;;5.03;;
9914;SDS011;4996;48.746;9.174;2022-07-29T13:10:14;8.17;;;5.10;;
9914;SDS011;4996;48.746;9.174;2022-07-29T13:15:38;5.67;;;5.07;;
9914;SDS011;4996;48.746;9.174;2022-07-29T13:18:26;7.53;;;5.70;;
9914;SDS011;4996;48.746;9.174;2022-07-29T13:20:55;10.63;;;6.40;;
9914;SDS011;4996;48.746;9.174;2022-07-29T13:23:21;8.00;;;5.97;;
9914;SDS011;4996;48.746;9.174;2022-07-29T13:25:47;6.87;;;6.17;;
9914;SDS011;4996;48.746;9.174;2022-07-29T13:28:13;6.57;;;5.97;;
9914;SDS011;4996;48.746;9.174;2022-07-29T13:30:41;8.80;;;7.20;;
9914;SDS011;4996;48.746;9.174;2022-07-29T13:33:07;8.53;;;6.83;;
9914;SDS011;4996;48.746;9.174;2022-07-29T13:35:33;8.70;;;7.80;;
9914;SDS011;4996;48.746;9.174;2022-07-29T13:37:59;7.70;;;6.40;;
9914;SDS011;4996;48.746;9.174;2022-07-29T13:40:24;8.87;;;7.47;;
9914;SDS011;4996;48.746;9.174;2022-07-29T13:42:50;7.90;;;7.10;;
9914;SDS011;4996;48.746;9.174;2022-07-29T13:45:16;10.70;;;7.90;;
9914;SDS011;4996;48.746;9.174;2022-07-29T13:47:42;8.43;;;6.90;;
9914;SDS011;4996;48.746;9.174;2022-07-29T13:50:07;12.57;;;7.57;;
9914;SDS011;4996;48.746;9.174;2022-07-29T13:52:35;8.47;;;7.57;;
9914;SDS011;4996;48.746;9.174;2022-07-29T13:55:01;7.70;;;7.03;;
9914;SDS011;4996;48.746;9.174;2022-07-29T13:57:27;7.90;;;7.20;;
9914;SDS011;4996;48.746;9.174;2022-07-29T13:59:53;7.93;;;7.23;;
9914;SDS011;4996;48.746;9.174;2022-07-29T14:02:18;8.00;;;6.50;;
9914;SDS011;4996;48.746;9.174;2022-07-29T14:04:44;8.13;;;6.93;;
9914;SDS011;4996;48.746;9.174;2022-07-29T14:07:09;8.37;;;7.13;;
9914;SDS011;4996;48.746;9.174;2022-07-29T14:09:35;8.03;;;7.13;;
9914;SDS011;4996;48.746;9.174;2022-07-29T14:12:01;8.63;;;7.00;;
9914;SDS011;4996;48.746;9.174;2022-07-29T14:14:27;7.60;;;6.80;;
9914;SDS011;4996;48.746;9.174;2022-07-29T14:16:53;7.87;;;7.07;;
9914;SDS011;4996;48.746;9.174;2022-07-29T14:19:19;9.27;;;7.50;;
9914;SDS011;4996;48.746;9.174;2022-07-29T14:21:45;7.80;;;7.10;;
9914;SDS011;4996;48.746;9.174;2022-07-29T14:24:11;7.90;;;7.10;;
9914;SDS011;4996;48.746;9.174;2022-07-29T14:26:36;7.30;;;6.37;;
9914;SDS011;4996;48.746;9.174;2022-07-29T14:29:02;8.37;;;7.57;;
9914;SDS011;4996;48.746;9.174;2022-07-29T14:31:27;7.90;;;7.10;;
9914;SDS011;4996;48.746;9.174;2022-07-29T14:33:53;11.20;;;7.70;;
9914;SDS011;4996;48.746;9.174;2022-07-29T14:36:18;11.60;;;6.97;;
9914;SDS011;4996;48.746;9.174;2022-07-29T14:38:44;8.17;;;7.40;;
9914;SDS011;4996;48.746;9.174;2022-07-29T14:41:10;8.57;;;7.70;;
9914;SDS011;4996;48.746;9.174;2022-07-29T14:43:35;9.43;;;7.83;;
9914;SDS011;4996;48.746;9.174;2022-07-29T14:46:01;8.60;;;7.77;;
9914;SDS011;4996;48.746;9.174;2022-07-29T14:48:26;12.83;;;7.90;;
9914;SDS011;4996;48.746;9.174;2022-07-29T14:50:52;9.23;;;8.33;;
9914;SDS011;4996;48.746;9.174;2022-07-29T14:53:19;11.50;;;7.73;;
9914;SDS011;4996;48.746;9.174;2022-07-29T14:55:44;10.40;;;7.30;;
9914;SDS011;4996;48.746;9.174;2022-07-29T14:58:10;9.00;;;8.10;;
9914;SDS011;4996;48.746;9.174;2022-07-29T15:00:36;10.17;;;7.70;;
9914;SDS011;4996;48.746;9.174;2022-07-29T15:03:02;9.33;;;7.90;;
9914;SDS011;4996;48.746;9.174;2022-07-29T15:05:31;13.40;;;8.80;;
9914;SDS011;4996;48.746;9.174;2022-07-29T15:07:58;9.90;;;8.93;;
9914;SDS011;4996;48.746;9.174;2022-07-29T15:10:24;10.37;;;8.70;;
9914;SDS011;4996;48.746;9.174;2022-07-29T15:12:52;17.97;;;8.70;;
9914;SDS011;4996;48.746;9.174;2022-07-29T15:15:17;10.30;;;8.67;;
9914;SDS011;4996;48.746;9.174;2022-07-29T15:17:43;10.00;;;8.17;;
9914;SDS011;4996;48.746;9.174;2022-07-29T15:20:09;10.43;;;8.80;;
9914;SDS011;4996;48.746;9.174;2022-07-29T15:22:36;10.00;;;8.77;;
9914;SDS011;4996;48.746;9.174;2022-07-29T15:25:03;10.23;;;8.87;;
9914;SDS011;4996;48.746;9.174;2022-07-29T15:27:29;10.13;;;9.13;;
9914;SDS011;4996;48.746;9.174;2022-07-29T15:29:55;12.33;;;9.50;;
9914;SDS011;4996;48.746;9.174;2022-07-29T15:32:20;13.70;;;9.50;;
9914;SDS011;4996;48.746;9.174;2022-07-29T15:34:46;10.90;;;9.87;;
9914;SDS011;4996;48.746;9.174;2022-07-29T15:37:12;11.90;;;8.80;;
9914;SDS011;4996;48.746;9.174;2022-07-29T15:39:37;9.90;;;8.57;;
9914;SDS011;4996;48.746;9.174;2022-07-29T15:42:03;10.40;;;9.33;;
9914;SDS011;4996;48.746;9.174;2022-07-29T15:44:29;11.10;;;10.00;;
9914;SDS011;4996;48.746;9.174;2022-07-29T15:46:54;12.43;;;9.37;;
9914;SDS011;4996;48.746;9.174;2022-07-29T15:49:33;10.50;;;7.90;;
9914;SDS011;4996;48.746;9.174;2022-07-29T15:52:06;9.80;;;9.00;;
9914;SDS011;4996;48.746;9.174;2022-07-29T15:54:34;9.40;;;8.50;;
9914;SDS011;4996;48.746;9.174;2022-07-29T15:57:02;9.40;;;8.57;;
9914;SDS011;4996;48.746;9.174;2022-07-29T15:59:28;9.57;;;8.67;;
9914;SDS011;4996;48.746;9.174;2022-07-29T16:01:54;8.97;;;8.07;;
9914;SDS011;4996;48.746;9.174;2022-07-29T16:04:20;8.83;;;8.00;;
9914;SDS011;4996;48.746;9.174;2022-07-29T16:06:46;9.50;;;8.60;;
9914;SDS011;4996;48.746;9.174;2022-07-29T16:09:13;10.87;;;8.00;;
9914;SDS011;4996;48.746;9.174;2022-07-29T16:11:39;8.93;;;7.97;;
9914;SDS011;4996;48.746;9.174;2022-07-29T16:14:05;9.43;;;8.53;;
9914;SDS011;4996;48.746;9.174;2022-07-29T16:16:31;9.43;;;8.37;;
9914;SDS011;4996;48.746;9.174;2022-07-29T16:18:57;8.73;;;7.83;;
9914;SDS011;4996;48.746;9.174;2022-07-29T16:21:22;10.27;;;7.87;;
9914;SDS011;4996;48.746;9.174;2022-07-29T16:23:48;9.30;;;7.80;;
9914;SDS011;4996;48.746;9.174;2022-07-29T16:26:14;8.83;;;7.43;;